createdAt,value
2022-08-23T00:00:07.660Z,4.05
2022-08-23T00:04:36.370Z,4.30
2022-08-23T00:08:21.426Z,4.45
2022-08-23T00:12:24.382Z,4.00
2022-08-23T00:16:02.447Z,4.60
2022-08-23T00:19:55.409Z,4.78
2022-08-23T00:23:40.377Z,4.55
2022-08-23T00:27:40.417Z,4.30
2022-08-23T00:31:32.418Z,4.38
2022-08-23T00:35:26.620Z,4.00
2022-08-23T00:39:19.436Z,4.30
2022-08-23T00:43:22.062Z,4.68
2022-08-23T00:47:33.422Z,4.83
2022-08-23T00:51:27.438Z,4.10
2022-08-23T00:55:26.410Z,4.55
2022-08-23T00:59:18.421Z,4.40
2022-08-23T01:03:05.398Z,4.57
2022-08-23T01:07:04.482Z,4.57
2022-08-23T01:11:02.411Z,4.20
2022-08-23T01:15:00.461Z,4.28
2022-08-23T01:18:47.845Z,4.77
2022-08-23T01:23:04.446Z,4.17
2022-08-23T01:26:56.422Z,4.43
2022-08-23T01:30:35.519Z,4.80
2022-08-23T01:34:28.408Z,4.20
2022-08-23T01:38:14.431Z,4.30
2022-08-23T01:41:59.504Z,4.53
2022-08-23T01:45:44.439Z,4.15
2022-08-23T01:49:36.426Z,4.53
2022-08-23T01:53:35.424Z,4.27
2022-08-23T01:57:27.441Z,4.23
2022-08-23T02:01:13.474Z,4.50
2022-08-23T02:05:05.455Z,3.97
2022-08-23T02:09:17.273Z,4.18
2022-08-23T02:13:09.455Z,4.03
2022-08-23T02:17:03.802Z,3.73
2022-08-23T02:21:05.519Z,4.10
2022-08-23T02:24:57.454Z,4.05
2022-08-23T02:28:42.460Z,4.15
2022-08-23T02:32:41.476Z,4.00
2022-08-23T02:36:41.487Z,3.88
2022-08-23T02:40:33.464Z,3.90
2022-08-23T02:44:19.460Z,4.05
2022-08-23T02:48:11.453Z,4.13
2022-08-23T02:51:50.913Z,3.80
2022-08-23T02:55:42.498Z,4.05
2022-08-23T02:59:27.514Z,4.45
2022-08-23T03:03:26.583Z,4.27
2022-08-23T03:07:18.481Z,4.53
2022-08-23T03:11:10.565Z,5.20
2022-08-23T03:14:52.025Z,4.53
2022-08-23T03:18:44.478Z,5.20
2022-08-23T03:22:29.504Z,5.23
2022-08-23T03:26:16.588Z,5.30
2022-08-23T03:30:01.479Z,5.93
2022-08-23T03:33:54.548Z,5.73
2022-08-23T03:37:33.240Z,5.07
2022-08-23T03:41:25.496Z,5.30
2022-08-23T03:45:04.431Z,5.15
2022-08-23T03:48:56.512Z,5.10
2022-08-23T03:52:41.476Z,5.30
2022-08-23T03:56:49.545Z,4.82
2022-08-23T04:00:28.270Z,5.70
2022-08-23T04:04:19.520Z,5.43
2022-08-23T04:08:19.619Z,5.23
2022-08-23T04:12:17.853Z,5.03
2022-08-23T04:16:11.512Z,5.72
2022-08-23T04:20:00.543Z,5.85
2022-08-23T04:23:59.502Z,6.03
2022-08-23T04:27:51.543Z,5.45
2022-08-23T04:31:40.502Z,6.32
2022-08-23T04:35:40.525Z,5.32
2022-08-23T04:39:59.569Z,5.80
2022-08-23T04:43:51.505Z,5.25
2022-08-23T04:47:36.561Z,5.97
2022-08-23T04:51:35.536Z,5.50
2022-08-23T04:55:20.839Z,6.20
2022-08-23T04:59:12.990Z,6.78
2022-08-23T05:02:53.106Z,6.88
2022-08-23T05:06:45.534Z,6.25
2022-08-23T05:10:30.533Z,6.63
2022-08-23T05:14:15.612Z,6.93
2022-08-23T05:18:00.698Z,6.30
2022-08-23T05:21:56.765Z,6.63
2022-08-23T05:25:56.570Z,6.13
2022-08-23T05:29:41.621Z,6.33
2022-08-23T05:33:26.554Z,7.22
2022-08-23T05:37:18.555Z,6.53
2022-08-23T05:41:17.577Z,7.68
2022-08-23T05:45:09.558Z,6.50
2022-08-23T05:48:57.537Z,6.65
2022-08-23T05:52:51.219Z,6.65
2022-08-23T05:56:35.637Z,7.32
2022-08-23T06:00:37.886Z,6.43
2022-08-23T06:04:26.562Z,6.00
2022-08-23T06:08:25.555Z,6.25
2022-08-23T06:12:17.577Z,6.70
2022-08-23T06:16:14.753Z,6.88
2022-08-23T06:20:15.666Z,6.20
2022-08-23T06:24:14.600Z,6.32
2022-08-23T06:28:06.566Z,5.82
2022-08-23T06:31:57.575Z,6.25
2022-08-23T06:35:43.222Z,5.80
2022-08-23T06:39:37.900Z,5.55
2022-08-23T06:43:22.592Z,5.97
2022-08-23T06:47:09.687Z,5.80
2022-08-23T06:50:54.587Z,5.57
2022-08-23T06:54:48.675Z,5.82
2022-08-23T06:58:27.004Z,5.30
2022-08-23T07:02:22.769Z,5.32
2022-08-23T07:06:08.609Z,6.20
2022-08-23T07:09:54.035Z,6.20
2022-08-23T07:13:38.641Z,5.22
2022-08-23T07:17:30.599Z,5.35
2022-08-23T07:21:08.957Z,5.53
2022-08-23T07:25:00.637Z,4.77
2022-08-23T07:28:48.633Z,5.60
2022-08-23T07:32:33.685Z,5.38
2022-08-23T07:36:24.619Z,5.72
2022-08-23T07:40:20.388Z,5.80
2022-08-23T07:44:02.416Z,6.27
2022-08-23T07:47:50.607Z,6.25
2022-08-23T07:51:40.634Z,5.95
2022-08-23T07:55:25.651Z,5.45
2022-08-23T07:59:14.781Z,6.40
2022-08-23T08:02:59.742Z,5.80
2022-08-23T08:07:17.765Z,6.10
2022-08-23T08:10:56.945Z,6.63
2022-08-23T08:14:48.664Z,5.93
2022-08-23T08:18:33.632Z,6.70
2022-08-23T08:22:25.697Z,6.60
2022-08-23T08:26:07.530Z,6.75
2022-08-23T08:29:59.625Z,6.78
2022-08-23T08:33:44.654Z,5.53
2022-08-23T08:37:30.403Z,6.43
2022-08-23T08:41:23.672Z,7.05
2022-08-23T08:45:34.092Z,6.43
2022-08-23T08:49:48.660Z,6.43
2022-08-23T08:53:45.742Z,5.50
2022-08-23T08:57:31.645Z,5.85
2022-08-23T09:01:23.726Z,6.45
2022-08-23T09:05:13.654Z,6.32
2022-08-23T09:09:28.677Z,5.70
2022-08-23T09:14:00.692Z,6.00
2022-08-23T09:18:09.656Z,6.22
2022-08-23T09:22:08.709Z,5.22
2022-08-23T09:25:46.777Z,5.60
2022-08-23T09:29:42.680Z,6.10
2022-08-23T09:33:49.684Z,6.53
2022-08-23T09:38:15.655Z,6.53
2022-08-23T09:42:14.672Z,6.90
2022-08-23T09:46:08.742Z,7.60
2022-08-23T09:49:54.747Z,6.65
2022-08-23T09:53:42.487Z,6.55
2022-08-23T09:57:39.694Z,7.88
2022-08-23T10:01:38.206Z,8.23
2022-08-23T10:05:40.712Z,7.80
2022-08-23T10:09:36.985Z,7.57
2022-08-23T10:13:28.729Z,8.43
2022-08-23T10:17:29.717Z,8.90
2022-08-23T10:21:26.694Z,8.10
2022-08-23T10:25:35.694Z,7.80
2022-08-23T10:29:43.688Z,7.40
2022-08-23T10:33:51.697Z,8.07
2022-08-23T10:38:03.900Z,6.83
2022-08-23T10:41:48.776Z,6.03
2022-08-23T10:45:46.751Z,6.38
2022-08-23T10:49:32.736Z,6.45
2022-08-23T10:53:36.718Z,6.65
2022-08-23T10:57:30.728Z,7.00
2022-08-23T11:01:39.750Z,6.97
2022-08-23T11:05:36.749Z,6.82
2022-08-23T11:09:21.919Z,6.38
2022-08-23T11:13:18.727Z,5.70
2022-08-23T11:17:15.726Z,6.43
2022-08-23T11:21:47.728Z,6.15
2022-08-23T11:25:25.820Z,6.93
2022-08-23T11:29:17.754Z,6.13
2022-08-23T11:33:03.754Z,6.82
2022-08-23T11:37:32.775Z,7.85
2022-08-23T11:41:35.754Z,8.05
2022-08-23T11:45:36.773Z,7.27
2022-08-23T11:49:42.772Z,7.38
2022-08-23T11:54:00.740Z,8.23
2022-08-23T11:58:10.760Z,7.53
2022-08-23T12:01:57.770Z,7.10
2022-08-23T12:06:16.784Z,6.85
2022-08-23T12:10:12.802Z,7.13
2022-08-23T12:14:08.757Z,6.28
2022-08-23T12:18:04.030Z,7.37
2022-08-23T12:21:52.813Z,7.40
2022-08-23T12:25:44.797Z,6.75
2022-08-23T12:29:48.780Z,7.15
2022-08-23T12:33:46.793Z,6.95
2022-08-23T12:38:14.803Z,7.33
2022-08-23T12:42:21.777Z,7.07
2022-08-23T12:46:08.884Z,7.68
2022-08-23T12:50:02.796Z,7.47
2022-08-23T12:53:57.814Z,7.70
2022-08-23T12:57:45.816Z,8.10
2022-08-23T13:01:35.781Z,7.47
2022-08-23T13:05:45.973Z,8.15
2022-08-23T13:09:53.935Z,7.38
2022-08-23T13:13:41.812Z,7.97
2022-08-23T13:17:33.008Z,8.20
2022-08-23T13:21:29.806Z,7.60
2022-08-23T13:25:40.802Z,7.80
2022-08-23T13:29:39.790Z,7.38
2022-08-23T13:33:31.799Z,8.40
2022-08-23T13:37:20.923Z,8.13
2022-08-23T13:41:20.813Z,7.78
2022-08-23T13:45:00.884Z,8.07
2022-08-23T13:49:04.817Z,7.70
2022-08-23T13:53:13.930Z,8.00
2022-08-23T13:57:06.852Z,8.60
2022-08-23T14:01:00.407Z,9.15
2022-08-23T14:04:59.875Z,8.38
2022-08-23T14:08:58.874Z,8.20
2022-08-23T14:12:52.846Z,8.15
2022-08-23T14:16:47.866Z,8.30
2022-08-23T14:20:46.888Z,8.40
2022-08-23T14:24:32.186Z,8.30
2022-08-23T14:28:23.846Z,8.75
2022-08-23T14:32:08.841Z,7.60
2022-08-23T14:36:02.831Z,8.55
2022-08-23T14:39:47.873Z,8.37
2022-08-23T14:43:36.975Z,7.75
2022-08-23T14:47:21.862Z,9.05
2022-08-23T14:51:13.879Z,7.97
2022-08-23T14:54:58.885Z,9.17
2022-08-23T14:58:50.868Z,7.82
2022-08-23T15:02:35.855Z,7.82
2022-08-23T15:06:23.018Z,8.27
2022-08-23T15:10:07.857Z,8.30
2022-08-23T15:14:00.410Z,8.32
2022-08-23T15:18:01.037Z,8.65
2022-08-23T15:21:45.948Z,8.98
2022-08-23T15:25:39.890Z,7.83
2022-08-23T15:29:24.902Z,7.68
2022-08-23T15:33:27.140Z,8.07
2022-08-23T15:37:28.042Z,8.43
2022-08-23T15:41:13.884Z,7.80
2022-08-23T15:45:08.939Z,7.63
2022-08-23T15:48:53.997Z,7.43
2022-08-23T15:52:45.877Z,7.80
2022-08-23T15:56:33.092Z,8.53
2022-08-23T16:00:31.997Z,8.50
2022-08-23T16:04:17.885Z,8.38
2022-08-23T16:08:17.911Z,7.80
2022-08-23T16:12:11.885Z,8.43
2022-08-23T16:15:56.944Z,7.47
2022-08-23T16:19:48.907Z,8.23
2022-08-23T16:23:40.922Z,7.90
2022-08-23T16:27:25.888Z,7.43
2022-08-23T16:31:17.980Z,6.67
2022-08-23T16:35:02.925Z,8.13
2022-08-23T16:38:57.905Z,7.15
2022-08-23T16:42:42.936Z,6.65
2022-08-23T16:46:30.060Z,6.57
2022-08-23T16:50:17.790Z,6.95
2022-08-23T16:54:09.967Z,6.32
2022-08-23T16:57:48.498Z,7.10
2022-08-23T17:01:40.996Z,7.10
2022-08-23T17:05:26.918Z,6.70
2022-08-23T17:09:18.945Z,6.90
2022-08-23T17:12:57.888Z,7.00
2022-08-23T17:16:50.041Z,7.13
2022-08-23T17:20:51.976Z,6.97
2022-08-23T17:24:43.940Z,6.70
2022-08-23T17:28:31.607Z,7.00
2022-08-23T17:32:23.946Z,7.53
2022-08-23T17:36:02.130Z,7.20
2022-08-23T17:39:56.005Z,6.90
2022-08-23T17:43:34.161Z,6.88
2022-08-23T17:47:25.961Z,6.53
2022-08-23T17:51:17.967Z,7.20
2022-08-23T17:54:56.908Z,6.30
2022-08-23T17:58:48.973Z,6.90
2022-08-23T18:02:33.959Z,7.03
2022-08-23T18:06:19.052Z,6.43
2022-08-23T18:10:04.992Z,6.63
2022-08-23T18:13:57.970Z,6.13
2022-08-23T18:17:43.960Z,6.22
2022-08-23T18:21:30.840Z,5.78
2022-08-23T18:25:16.979Z,5.67
2022-08-23T18:29:11.065Z,5.22
2022-08-23T18:32:49.324Z,5.55
2022-08-23T18:36:41.966Z,5.88
2022-08-23T18:40:27.054Z,5.63
2022-08-23T18:44:19.990Z,7.10
2022-08-23T18:47:58.296Z,5.40
2022-08-23T18:51:51.034Z,6.22
2022-08-23T18:55:37.978Z,5.85
2022-08-23T18:59:30.003Z,5.53
2022-08-23T19:03:15.983Z,5.60
2022-08-23T19:07:07.998Z,5.57
2022-08-23T19:10:47.392Z,6.07
2022-08-23T19:14:40.000Z,6.03
2022-08-23T19:18:25.030Z,5.43
2022-08-23T19:22:17.000Z,5.80
2022-08-23T19:26:16.021Z,5.15
2022-08-23T19:30:08.010Z,5.60
2022-08-23T19:33:46.108Z,5.47
2022-08-23T19:37:31.011Z,4.95
2022-08-23T19:41:17.996Z,5.35
2022-08-23T19:45:03.003Z,5.90
2022-08-23T19:49:02.000Z,6.07
2022-08-23T19:53:00.048Z,6.43
2022-08-23T19:56:49.049Z,6.25
2022-08-23T20:00:42.045Z,5.55
2022-08-23T20:04:27.038Z,6.57
2022-08-23T20:08:19.036Z,6.03
2022-08-23T20:12:05.112Z,6.28
2022-08-23T20:16:04.071Z,5.97
2022-08-23T20:19:56.024Z,5.80
2022-08-23T20:24:00.051Z,6.20
2022-08-23T20:27:52.038Z,8.50
2022-08-23T20:31:33.263Z,7.07
2022-08-23T20:35:25.040Z,7.17
2022-08-23T20:39:05.127Z,7.05
2022-08-23T20:42:58.139Z,7.07
2022-08-23T20:46:37.213Z,7.37
2022-08-23T20:50:29.070Z,7.60
2022-08-23T20:54:14.048Z,7.25
2022-08-23T20:58:08.074Z,6.85
2022-08-23T21:01:53.119Z,7.60
2022-08-23T21:05:45.078Z,7.00
2022-08-23T21:09:36.098Z,8.02
2022-08-23T21:13:35.079Z,7.05
2022-08-23T21:17:27.102Z,7.68
2022-08-23T21:21:13.126Z,7.50
2022-08-23T21:25:12.071Z,8.23
2022-08-23T21:29:04.096Z,8.60
2022-08-23T21:32:50.096Z,8.30
2022-08-23T21:36:43.136Z,6.93
2022-08-23T21:40:28.311Z,7.60
2022-08-23T21:44:23.117Z,7.78
2022-08-23T21:48:08.098Z,7.78
2022-08-23T21:52:07.086Z,7.97
2022-08-23T21:55:59.090Z,7.80
2022-08-23T21:59:45.147Z,8.10
2022-08-23T22:03:44.128Z,7.57
2022-08-23T22:07:36.114Z,7.27
2022-08-23T22:11:22.091Z,7.72
2022-08-23T22:15:15.130Z,7.82
2022-08-23T22:18:53.805Z,7.20
2022-08-23T22:22:45.123Z,6.87
2022-08-23T22:26:30.113Z,7.80
2022-08-23T22:30:30.096Z,7.25
2022-08-23T22:34:22.150Z,7.90
2022-08-23T22:38:13.289Z,7.10
2022-08-23T22:42:06.135Z,7.13
2022-08-23T22:46:14.247Z,7.32
2022-08-23T22:49:59.119Z,8.60
2022-08-23T22:53:54.142Z,8.07
2022-08-23T22:57:32.389Z,7.50
2022-08-23T23:01:32.170Z,9.20
2022-08-23T23:05:19.135Z,8.37
2022-08-23T23:09:04.313Z,8.50
2022-08-23T23:12:49.139Z,7.90
2022-08-23T23:16:43.204Z,7.72
2022-08-23T23:20:47.161Z,7.03
2022-08-23T23:24:44.205Z,8.50
2022-08-23T23:28:29.163Z,7.97
2022-08-23T23:32:21.165Z,8.70
2022-08-23T23:35:59.493Z,8.30
2022-08-23T23:39:51.196Z,8.60
2022-08-23T23:43:36.133Z,8.75
2022-08-23T23:47:21.277Z,8.13
2022-08-23T23:51:08.134Z,8.53
2022-08-23T23:55:00.169Z,8.80
2022-08-23T23:58:39.365Z,8.80
